Ancora, New Jersey
Current Conditions -  °F | °C
As of 3:54 PM on Friday 28 Nov 2014 (Local Time) from KACY Reporting Station
Clear Clear  
Wind Chill: 26°   Ceiling: Unl
Heat Index: 36°   Visibility: 10mi
Dew Point: 16°   Wind: 18mph
Humidity: 44%   Direction: 310°NW
Pressure: 30.21"   Gusts: NA
Location:  39.637°N, 74.7602°W
Report Text: KACY 282054Z 31016KT 10SM CLR 02/M09 A3021 RMK AO2 SLP229 T00221089 53005
Loading
Personal Weather Stations






























Interactive Weather Map New forecast layout! Learn more

10-Day Weather Forecast

Advertisements
Track Severe Weather on mobile